Nearby METAR Reports

 

KSJC - San Jose, California, USA
Distance from station: NE 9mi, 14km
Updated: Sat, 15-Dec-2018 6:53am CST
Clear
Clear
 Wind from SE
Wind: SE 6 mph , 9 km/h
Temperature: 46°F , 8°C
Wind Chill: 43°F , 6°C
Dew Point: 46°F , 8°C
Humidity: 100%
Barometer: 30.08 inHg , 1018.6 hPa
Clouds: Clear
Visibility: 10 miles , 16 km
2018/12/15 12:53 KSJC 151253Z AUTO 14005KT 10SM CLR 08/08 A3008 RMK AO2 SLP184 T00830078
KNUQ - Moffett Nas/Mtn, California, USA
Distance from station: N 9mi, 14km
Updated: Sat, 15-Dec-2018 6:56am CST
Clear
Clear
 Wind from SE
Wind: SE 5 mph , 7 km/h
Temperature: 48°F , 9°C
Wind Chill: 46°F , 8°C
Dew Point: 46°F , 8°C
Humidity: 94%
Barometer: 30.08 inHg , 1018.6 hPa
Clouds: Clear
Visibility: 10 miles , 16 km
2018/12/15 12:56 KNUQ 151256Z 14004KT 10SM CLR 09/08 A3008 RMK AO2 SLP187 T00940078 $
 
KPAO - Palo Alto, California, USA
Distance from station: NNW 14mi, 23km
Updated: Fri, 14-Dec-2018 9:47pm CST
NOT Current
Mostly cloudy
Mostly cloudy
 Wind from varies
Wind: varies 5 mph , 7 km/h
Temperature: 57°F , 14°C
Dew Point: 50°F , 10°C
Humidity: 77%
Barometer: 30.12 inHg , 1020 hPa
Clouds: Mostly cloudy
Visibility: 10 miles , 16 km
Cloud details: Mostly cloudy 6000 ft
2018/12/15 03:47 KPAO 150347Z VRB04KT 10SM BKN060 14/10 A3012
KRHV - San Jose/Reid, California, USA
Distance from station: ENE 12mi, 19km
Updated: Fri, 14-Dec-2018 11:50pm CST
NOT Current
Partly cloudy
Partly cloudy
 Wind from varies
Wind: varies 5 mph , 7 km/h
Temperature: 54°F , 12°C
Dew Point: 48°F , 9°C
Humidity: 82%
Barometer: 30.09 inHg , 1019 hPa
Clouds: Partly cloudy
Visibility: 10 miles , 16 km
Cloud details: Partly cloudy 8000 ft
2018/12/15 05:50 KRHV 150550Z VRB04KT 10SM SCT080 12/09 A3009 RMK LAST
 
KOAK - Oakland, California, USA
Distance from station: NNW 31mi, 50km
Updated: Sat, 15-Dec-2018 6:53am CST
Partly cloudy
Partly cloudy
 Wind from ESE
Wind: ESE 9 mph , 15 km/h
Temperature: 54°F , 12°C
Dew Point: 48°F , 9°C
Humidity: 82%
Barometer: 30.07 inHg , 1018.3 hPa
Clouds: Partly cloudy
Visibility: 10 miles , 16 km
Cloud details: Few Clouds 2800 ft
Partly cloudy 8000 ft
Partly cloudy 18000 ft
2018/12/15 12:53 KOAK 151253Z 12008KT 10SM FEW028 SCT080 SCT180 12/09 A3007 RMK AO2 SLP182 T01170089
KSQL - San Carlos Airpo, California, USA
Distance from station: NW 21mi, 34km
Updated: Sat, 15-Dec-2018 7:15am CST
Clear
Clear
 Wind from calm
Wind: Calm
Temperature: 50°F , 10°C
Dew Point: 48°F , 9°C
Humidity: 94%
Barometer: 30.07 inHg , 1018.3 hPa
Clouds: Clear
Visibility: 10 miles , 16 km
2018/12/15 13:15 KSQL 151315Z AUTO 00000KT 10SM CLR 10/09 A3007 RMK AO2
 
KSFO - San Francisco, California, USA
Distance from station: NW 30mi, 49km
Updated: Sat, 15-Dec-2018 6:56am CST
Mostly cloudy
Mostly cloudy
 Wind from SE
Wind: SE 9 mph , 15 km/h
Temperature: 54°F , 12°C
Dew Point: 48°F , 9°C
Humidity: 82%
Barometer: 30.05 inHg , 1017.6 hPa
Clouds: Mostly cloudy
Visibility: 10 miles , 16 km
Cloud details: Few Clouds 3000 ft
Partly cloudy 3800 ft
Mostly cloudy 8000 ft
2018/12/15 12:56 KSFO 151256Z 14008KT 10SM FEW030 SCT038 BKN080 12/09 A3005 RMK AO2 SLP177 T01220089
KE16 - San Martin, California, USA
Distance from station: ESE 27mi, 43km
Updated: Sat, 15-Dec-2018 5:15am CST
NOT Current
Overcast
Overcast
 Wind from calm
Wind: Calm
Temperature: 45°F , 7°C
Dew Point: 45°F , 7°C
Humidity: 100%
Barometer: 30.13 inHg , 1020.3 hPa
Clouds: Overcast
Visibility: 8 miles , 13 km
Cloud details: Mostly cloudy 1300 ft
Overcast 1900 ft
2018/12/15 11:15 KE16 151115Z AUTO 00000KT 8SM BKN013 OVC019 07/07 A3013 RMK AO2
 
KWVI - Watsonville, California, USA
Distance from station: SSE 27mi, 44km
Updated: Sat, 15-Dec-2018 7:00am CST
Overcast
Overcast
 Wind from calm
Wind: Calm
Temperature: 46°F , 8°C
Dew Point: 43°F , 6°C
Humidity: 87%
Barometer: 30.09 inHg , 1019 hPa
Clouds: Overcast
Visibility: 10 miles , 16 km
Cloud details: Mostly cloudy 400 ft
Overcast 1500 ft
2018/12/15 13:00 KWVI 151300Z AUTO 00000KT 10SM BKN004 OVC015 08/06 A3009 RMK AO2 T00780061
KHAF - Half Moon Bay, California, USA
Distance from station: WNW 31mi, 50km
Updated: Sat, 15-Dec-2018 7:15am CST
Haze, Overcast
Haze, Overcast
 Wind from SE
Wind: SE 8 mph , 13 km/h
Temperature: 55°F , 13°C
Dew Point: 50°F , 10°C
Humidity: 82%
Barometer: 30.07 inHg , 1018.3 hPa
Summary: Haze
Clouds: Overcast
Visibility: 6 miles , 10 km
Cloud details: Overcast 2900 ft
2018/12/15 13:15 KHAF 151315Z AUTO 13007KT 6SM HZ OVC029 13/10 A3007 RMK AO2
 
KHWD - Hayward, California, USA
Distance from station: N 28mi, 44km
Updated: Sat, 15-Dec-2018 6:54am CST
Clear
Clear
 Wind from ENE
Wind: ENE 5 mph , 7 km/h
Temperature: 50°F , 10°C
Wind Chill: 48°F , 9°C
Dew Point: 45°F , 7°C
Humidity: 82%
Barometer: 30.06 inHg , 1017.9 hPa
Clouds: Clear
Visibility: 10 miles , 16 km
2018/12/15 12:54 KHWD 151254Z AUTO 07004KT 10SM CLR 10/07 A3006 RMK AO2 SLP190 T01000072
KLVK - Livermore, California, USA
Distance from station: NNE 31mi, 51km
Updated: Sat, 15-Dec-2018 6:53am CST
Mist, Clear
Mist, Clear
 Wind from E
Wind: E 5 mph , 7 km/h
Temperature: 43°F , 6°C
Wind Chill: 40°F , 4°C
Dew Point: 41°F , 5°C
Humidity: 93%
Barometer: 30.07 inHg , 1018.3 hPa
Summary: Mist
Clouds: Clear
Visibility: 3 miles , 5 km
2018/12/15 12:53 KLVK 151253Z AUTO 08004KT 3SM BR CLR 06/05 A3007 RMK AO2 SLP184 T00610050